Time;durP1;ratioP1;P1;durP2;ratioP2;P2;SDS_P1;SDS_P2;PMS_P1;PMS_P2;Temp;Humidity;BMP_temperature;BMP_pressure;BME280_temperature;BME280_humidity;BME280_pressure;Samples;Min_cycle;Max_cycle;Signal;HPM_P1;HPM_P2
2021/06/27 00:02:14;;;;;;;57.05;36.22;;;17.90;99.90;;;;;;5118549;28;20196;-80
2021/06/27 00:04:41;;;;;;;48.25;33.20;;;17.80;99.90;;;;;;5118497;28;20189;-81
2021/06/27 00:07:07;;;;;;;55.90;36.50;;;17.80;99.90;;;;;;5116140;28;20505;-81
2021/06/27 00:09:34;;;;;;;53.40;33.97;;;17.70;99.90;;;;;;5116872;28;20222;-80
2021/06/27 00:12:01;;;;;;;57.40;37.30;;;17.70;99.90;;;;;;5109148;28;20220;-81
2021/06/27 00:14:30;;;;;;;61.22;37.63;;;17.70;99.90;;;;;;5097409;28;20228;-80
2021/06/27 00:16:56;;;;;;;56.00;36.05;;;17.70;99.90;;;;;;5099848;28;20638;-80
2021/06/27 00:19:23;;;;;;;54.85;34.80;;;17.70;99.90;;;;;;5118060;28;20209;-81
2021/06/27 00:21:51;;;;;;;54.33;33.80;;;17.70;99.90;;;;;;5117536;28;20193;-81
2021/06/27 00:24:18;;;;;;;55.50;35.75;;;17.70;99.90;;;;;;5102596;28;20215;-81
2021/06/27 00:26:46;;;;;;;62.40;36.85;;;17.60;99.90;;;;;;5097554;28;20192;-80
2021/06/27 00:29:13;;;;;;;57.10;36.40;;;17.60;99.90;;;;;;5096319;28;20196;-81
2021/06/27 00:31:41;;;;;;;59.30;36.53;;;17.60;99.90;;;;;;5097541;28;20227;-80
2021/06/27 00:34:08;;;;;;;62.30;37.03;;;17.70;99.90;;;;;;5096677;28;20503;-80
2021/06/27 00:36:34;;;;;;;61.80;37.83;;;17.70;99.90;;;;;;5097724;28;20204;-80
2021/06/27 00:39:01;;;;;;;56.97;35.35;;;17.60;99.90;;;;;;5109652;28;20208;-80
2021/06/27 00:41:28;;;;;;;55.17;35.65;;;17.60;99.90;;;;;;5117225;28;20202;-79
2021/06/27 00:43:55;;;;;;;56.55;35.75;;;17.60;99.90;;;;;;5118018;28;20196;-78
2021/06/27 00:46:22;;;;;;;53.15;34.45;;;17.50;99.90;;;;;;5117992;28;20200;-80
2021/06/27 00:48:50;;;;;;;56.55;34.38;;;17.50;99.90;;;;;;5103102;28;20207;-79
2021/06/27 00:51:17;;;;;;;53.53;34.03;;;17.50;99.90;;;;;;5096867;28;20220;-80
2021/06/27 00:53:44;;;;;;;59.30;36.13;;;17.50;99.90;;;;;;5097338;28;20200;-81
2021/06/27 00:56:11;;;;;;;55.33;34.20;;;17.50;99.90;;;;;;5114613;28;20204;-80
2021/06/27 00:58:38;;;;;;;56.97;35.35;;;17.50;99.90;;;;;;5117471;28;20196;-80
2021/06/27 01:01:09;;;;;;;55.30;36.28;;;17.50;99.90;;;;;;5117574;28;20208;-81
2021/06/27 01:03:36;;;;;;;59.35;37.78;;;17.50;99.90;;;;;;5112069;28;20615;-80
2021/06/27 01:06:04;;;;;;;57.50;34.85;;;17.50;99.90;;;;;;5096675;28;20597;-81
2021/06/27 01:08:31;;;;;;;57.47;35.95;;;17.40;99.90;;;;;;5096671;28;20197;-81
2021/06/27 01:10:58;;;;;;;59.35;37.50;;;17.50;99.90;;;;;;5096028;28;20232;-81
2021/06/27 01:13:25;;;;;;;56.10;34.72;;;17.50;99.90;;;;;;5096731;28;20205;-80
2021/06/27 01:15:53;;;;;;;58.95;36.22;;;17.50;99.90;;;;;;5096525;28;20538;-81
2021/06/27 01:18:20;;;;;;;61.13;37.13;;;17.50;99.90;;;;;;5112360;28;20592;-79
2021/06/27 01:20:48;;;;;;;57.35;36.30;;;17.50;99.90;;;;;;5114892;28;20204;-80
2021/06/27 01:23:20;;;;;;;61.13;37.55;;;17.50;99.90;;;;;;5116417;28;20192;-79
2021/06/27 01:25:50;;;;;;;59.40;37.95;;;17.40;99.90;;;;;;5115349;28;20192;-81
2021/06/27 01:28:18;;;;;;;55.92;35.42;;;17.40;99.90;;;;;;5116620;28;20196;-81
2021/06/27 01:30:45;;;;;;;61.63;36.70;;;17.40;99.90;;;;;;5114520;28;20223;-81
2021/06/27 01:33:15;;;;;;;62.10;36.97;;;17.40;99.90;;;;;;5076455;28;20201;-81
2021/06/27 01:35:43;;;;;;;67.28;38.00;;;17.40;99.90;;;;;;5076114;28;20209;-79
2021/06/27 01:38:12;;;;;;;61.38;37.40;;;17.40;99.90;;;;;;5075420;28;20193;-80
2021/06/27 01:40:40;;;;;;;64.00;37.23;;;17.40;99.90;;;;;;5078339;28;20525;-79
2021/06/27 01:43:13;;;;;;;62.20;36.90;;;17.40;99.90;;;;;;5096129;28;20188;-80
2021/06/27 01:45:41;;;;;;;64.50;37.08;;;17.40;99.90;;;;;;5095968;28;20197;-79
2021/06/27 01:48:10;;;;;;;65.97;39.20;;;17.40;99.90;;;;;;5113405;28;20208;-80
2021/06/27 01:50:38;;;;;;;61.17;37.00;;;17.40;99.90;;;;;;5116533;28;20203;-80
2021/06/27 01:53:06;;;;;;;60.15;34.90;;;17.40;99.90;;;;;;5115635;28;20520;-78
2021/06/27 01:55:33;;;;;;;63.20;37.25;;;17.40;99.90;;;;;;5116101;28;20203;-77
2021/06/27 01:58:02;;;;;;;56.10;35.90;;;17.40;99.90;;;;;;5114909;28;20211;-80
2021/06/27 02:00:30;;;;;;;64.38;37.22;;;17.40;99.90;;;;;;5115394;28;20207;-79
2021/06/27 02:02:58;;;;;;;63.38;37.75;;;17.40;99.90;;;;;;5114330;28;20208;-80
2021/06/27 02:05:25;;;;;;;63.38;38.05;;;17.40;99.90;;;;;;5115597;28;20199;-78
2021/06/27 02:07:51;;;;;;;63.28;39.33;;;17.40;99.90;;;;;;5114917;28;20204;-79
2021/06/27 02:10:20;;;;;;;65.20;38.88;;;17.40;99.90;;;;;;5116213;28;20224;-80
2021/06/27 02:12:48;;;;;;;62.53;36.70;;;17.40;99.90;;;;;;5115141;28;20301;-80
2021/06/27 02:15:17;;;;;;;63.00;36.72;;;17.40;99.90;;;;;;5111010;28;20212;-80
2021/06/27 02:17:53;;;;;;;61.72;37.22;;;17.40;99.90;;;;;;5095363;28;20225;-79
2021/06/27 02:20:20;;;;;;;65.82;38.63;;;17.40;99.90;;;;;;5096314;28;20219;-79
2021/06/27 02:22:47;;;;;;;70.53;39.78;;;17.40;99.90;;;;;;5115720;28;20199;-80
2021/06/27 02:25:15;;;;;;;65.95;37.88;;;17.40;99.90;;;;;;5114105;28;20207;-79
2021/06/27 02:27:42;;;;;;;69.55;38.80;;;17.40;99.90;;;;;;5115049;28;20287;-79
2021/06/27 02:30:11;;;;;;;59.38;36.03;;;17.40;99.90;;;;;;5114278;28;20214;-80
2021/06/27 02:32:40;;;;;;;59.22;38.80;;;17.40;99.90;;;;;;5114671;28;20227;-81
2021/06/27 02:35:08;;;;;;;65.43;38.42;;;17.40;99.90;;;;;;5115244;28;20200;-80
2021/06/27 02:37:35;;;;;;;61.42;36.00;;;17.40;99.90;;;;;;5110106;28;20208;-81
2021/06/27 02:40:02;;;;;;;59.97;37.80;;;17.30;99.90;;;;;;5095341;28;20196;-81
2021/06/27 02:42:29;;;;;;;49.38;32.97;;;17.30;99.90;;;;;;5094319;28;20207;-81
2021/06/27 02:44:56;;;;;;;57.45;35.30;;;17.30;99.90;;;;;;5094885;28;20491;-80
2021/06/27 02:47:23;;;;;;;58.42;36.63;;;17.30;99.90;;;;;;5095219;28;20203;-81
2021/06/27 02:49:51;;;;;;;57.90;37.88;;;17.30;99.90;;;;;;5094721;28;20192;-80
2021/06/27 02:52:18;;;;;;;56.17;35.75;;;17.20;99.90;;;;;;5094830;28;20624;-81
2021/06/27 02:54:45;;;;;;;56.28;36.90;;;17.30;99.90;;;;;;5094178;28;20199;-82
2021/06/27 02:57:12;;;;;;;63.28;38.40;;;17.30;99.90;;;;;;5094998;28;20207;-81
2021/06/27 02:59:38;;;;;;;55.08;35.00;;;17.30;99.90;;;;;;5094847;28;20204;-80
2021/06/27 03:02:05;;;;;;;54.08;35.30;;;17.30;99.90;;;;;;5112546;28;20210;-81
2021/06/27 03:04:32;;;;;;;53.38;34.58;;;17.20;99.90;;;;;;5115182;28;20200;-80
2021/06/27 03:07:00;;;;;;;54.70;34.95;;;17.30;99.90;;;;;;5115111;28;20199;-78
2021/06/27 03:09:27;;;;;;;55.25;34.95;;;17.20;99.90;;;;;;5113163;28;20220;-79
2021/06/27 03:11:54;;;;;;;52.03;34.17;;;17.20;99.90;;;;;;5115511;28;20223;-79
2021/06/27 03:14:21;;;;;;;53.53;34.55;;;17.20;99.90;;;;;;5115243;28;20203;-81
2021/06/27 03:16:47;;;;;;;52.30;34.95;;;17.20;99.90;;;;;;5114702;28;20246;-78
2021/06/27 03:19:15;;;;;;;55.53;35.42;;;17.20;99.90;;;;;;5104533;28;20208;-78
2021/06/27 03:21:42;;;;;;;56.35;35.00;;;17.30;99.90;;;;;;5095188;28;20193;-80
2021/06/27 03:24:11;;;;;;;54.47;35.28;;;17.20;99.90;;;;;;5094284;28;20207;-79
2021/06/27 03:26:38;;;;;;;59.70;35.60;;;17.20;99.90;;;;;;5111691;28;20219;-79
2021/06/27 03:29:05;;;;;;;57.15;34.95;;;17.20;99.90;;;;;;5115159;28;20200;-78
2021/06/27 03:31:32;;;;;;;55.88;35.03;;;17.20;99.90;;;;;;5114361;28;20318;-79
2021/06/27 03:33:59;;;;;;;56.60;36.20;;;17.20;99.90;;;;;;5106413;28;20635;-79
2021/06/27 03:36:26;;;;;;;50.15;33.58;;;17.20;99.90;;;;;;5094755;28;20192;-80
2021/06/27 03:38:58;;;;;;;50.55;32.92;;;17.20;99.90;;;;;;5094270;28;20208;-79
2021/06/27 03:41:29;;;;;;;50.95;34.30;;;17.20;99.90;;;;;;5094577;28;20519;-79
2021/06/27 03:43:56;;;;;;;54.30;35.05;;;17.20;99.90;;;;;;5115375;28;20302;-79
2021/06/27 03:46:23;;;;;;;49.17;32.85;;;17.20;99.90;;;;;;5118897;28;20196;-80
2021/06/27 03:48:49;;;;;;;55.95;36.08;;;17.10;99.90;;;;;;5118663;28;20199;-80
2021/06/27 03:51:16;;;;;;;51.03;34.20;;;17.10;99.90;;;;;;5117281;28;20212;-79
2021/06/27 03:53:43;;;;;;;53.07;33.63;;;17.10;99.90;;;;;;5117814;28;20200;-80
2021/06/27 03:56:10;;;;;;;50.72;32.92;;;17.20;99.90;;;;;;5118343;28;20196;-80
2021/06/27 03:58:38;;;;;;;49.05;32.88;;;17.20;99.90;;;;;;5117976;28;20192;-79
2021/06/27 04:01:05;;;;;;;49.92;34.65;;;17.10;99.90;;;;;;5109346;28;20509;-80
2021/06/27 04:03:31;;;;;;;52.63;33.17;;;17.20;99.90;;;;;;5097884;28;20537;-79
2021/06/27 04:05:58;;;;;;;54.67;36.83;;;17.20;99.90;;;;;;5097344;28;20208;-79
2021/06/27 04:08:25;;;;;;;47.72;31.92;;;17.10;99.90;;;;;;5098325;28;20204;-79
2021/06/27 04:10:56;;;;;;;49.75;33.67;;;17.20;99.90;;;;;;5097134;28;20232;-80
2021/06/27 04:13:23;;;;;;;46.00;31.90;;;17.20;99.90;;;;;;5097080;28;20224;-79
2021/06/27 04:15:52;;;;;;;51.65;34.22;;;17.20;99.90;;;;;;5097686;28;20212;-80
2021/06/27 04:18:19;;;;;;;50.15;33.40;;;17.20;99.90;;;;;;5097535;28;20250;-79
2021/06/27 04:20:46;;;;;;;49.00;33.35;;;17.20;99.90;;;;;;5097320;28;20210;-79
2021/06/27 04:23:12;;;;;;;48.47;32.28;;;17.30;99.90;;;;;;5097826;28;20220;-79
2021/06/27 04:25:39;;;;;;;49.72;32.58;;;17.30;99.90;;;;;;5097393;28;20200;-79
2021/06/27 04:28:07;;;;;;;43.95;32.22;;;17.40;99.90;;;;;;5096672;28;20210;-79
2021/06/27 04:30:34;;;;;;;46.40;30.98;;;17.40;99.90;;;;;;5097105;28;20567;-79
2021/06/27 04:33:02;;;;;;;45.13;30.90;;;17.40;99.90;;;;;;5097406;28;20220;-78
2021/06/27 04:35:31;;;;;;;47.42;33.08;;;17.40;99.90;;;;;;5097399;28;20195;-80
2021/06/27 04:37:58;;;;;;;48.30;31.77;;;17.50;99.90;;;;;;5097041;28;20213;-79
2021/06/27 04:40:25;;;;;;;44.65;31.92;;;17.50;99.90;;;;;;5096703;28;20847;-80
2021/06/27 04:42:52;;;;;;;47.28;33.40;;;17.70;99.90;;;;;;5097450;28;20189;-79
2021/06/27 04:45:20;;;;;;;44.08;31.08;;;17.70;99.90;;;;;;5097107;28;20528;-79
2021/06/27 04:47:46;;;;;;;42.75;31.70;;;17.80;99.90;;;;;;5114222;28;20230;-81
2021/06/27 04:50:15;;;;;;;42.67;30.88;;;17.90;99.90;;;;;;5117488;28;20213;-80
2021/06/27 04:52:42;;;;;;;43.45;31.88;;;17.90;99.90;;;;;;5109383;28;20216;-79
2021/06/27 04:55:10;;;;;;;44.35;31.85;;;18.00;99.90;;;;;;5095607;28;20223;-80
2021/06/27 04:57:37;;;;;;;42.00;30.52;;;18.20;99.90;;;;;;5096804;28;20205;-80
2021/06/27 05:00:07;;;;;;;43.53;31.15;;;18.30;99.90;;;;;;5096985;28;20192;-81
2021/06/27 05:02:34;;;;;;;47.05;32.92;;;18.50;99.90;;;;;;5096459;28;20234;-81
2021/06/27 05:05:01;;;;;;;41.58;30.30;;;18.70;99.90;;;;;;5097008;28;20196;-81
2021/06/27 05:07:30;;;;;;;41.08;30.83;;;18.90;99.90;;;;;;5106885;28;20218;-80
2021/06/27 05:09:57;;;;;;;37.60;28.67;;;19.00;99.90;;;;;;5116606;28;20223;-81
2021/06/27 05:12:24;;;;;;;39.03;30.27;;;19.20;99.90;;;;;;5117228;28;20226;-81
2021/06/27 05:14:51;;;;;;;40.30;29.85;;;19.30;99.90;;;;;;5115706;28;20200;-80
2021/06/27 05:17:18;;;;;;;38.10;28.60;;;19.40;99.90;;;;;;5115862;28;20242;-81
2021/06/27 05:19:45;;;;;;;35.78;28.85;;;19.50;99.90;;;;;;5116888;28;20282;-79
2021/06/27 05:22:12;;;;;;;38.72;29.67;;;19.50;99.90;;;;;;5102215;28;20208;-81
2021/06/27 05:24:40;;;;;;;36.78;28.02;;;19.40;99.90;;;;;;5095793;28;20219;-80
2021/06/27 05:27:07;;;;;;;35.50;28.33;;;19.30;99.90;;;;;;5096480;28;20199;-80
2021/06/27 05:29:35;;;;;;;34.13;28.25;;;19.20;99.90;;;;;;5095185;28;20219;-78
2021/06/27 05:32:02;;;;;;;39.05;29.73;;;19.30;99.90;;;;;;5096116;28;20293;-80
2021/06/27 05:34:30;;;;;;;35.60;28.48;;;19.40;99.90;;;;;;5096192;28;20200;-79
2021/06/27 05:36:57;;;;;;;32.90;27.33;;;19.60;99.90;;;;;;5095790;28;20204;-79
2021/06/27 05:39:24;;;;;;;36.17;28.30;;;19.80;99.90;;;;;;5109369;28;20204;-79
2021/06/27 05:41:53;;;;;;;39.00;29.88;;;20.10;99.90;;;;;;5116552;28;20196;-80
2021/06/27 05:44:20;;;;;;;35.25;28.38;;;20.30;99.90;;;;;;5115864;28;20523;-79
2021/06/27 05:46:47;;;;;;;34.67;28.77;;;20.40;99.90;;;;;;5103093;28;20296;-79
2021/06/27 05:49:14;;;;;;;37.40;28.45;;;20.70;99.90;;;;;;5095613;28;20200;-79
2021/06/27 05:51:42;;;;;;;32.35;27.60;;;20.80;99.90;;;;;;5095355;28;20184;-79
2021/06/27 05:54:09;;;;;;;33.78;27.40;;;21.00;99.90;;;;;;5095160;28;20201;-79
2021/06/27 05:56:36;;;;;;;32.30;28.05;;;21.20;99.90;;;;;;5095732;28;20208;-80
2021/06/27 05:59:04;;;;;;;31.35;26.83;;;21.20;99.90;;;;;;5094553;28;20204;-79
2021/06/27 06:01:31;;;;;;;31.55;26.88;;;21.20;99.90;;;;;;5095916;28;20611;-79
2021/06/27 06:03:58;;;;;;;32.47;28.45;;;21.40;99.90;;;;;;5100171;28;20207;-79
2021/06/27 06:06:25;;;;;;;31.30;26.83;;;21.60;99.90;;;;;;5115351;28;20207;-79
2021/06/27 06:08:52;;;;;;;33.60;28.58;;;21.80;99.90;;;;;;5114042;28;20203;-80
2021/06/27 06:11:18;;;;;;;31.98;27.60;;;22.00;99.90;;;;;;5095452;28;20254;-80
2021/06/27 06:13:45;;;;;;;35.03;27.35;;;22.10;99.90;;;;;;5094089;28;20235;-80
2021/06/27 06:16:14;;;;;;;32.17;28.00;;;22.10;99.90;;;;;;5114986;28;20208;-80
2021/06/27 06:18:42;;;;;;;32.80;28.17;;;22.00;99.90;;;;;;5115008;28;20232;-77
2021/06/27 06:21:09;;;;;;;31.27;27.20;;;21.90;99.90;;;;;;5116103;28;20196;-79
2021/06/27 06:23:36;;;;;;;29.08;25.52;;;21.90;99.90;;;;;;5109180;28;20200;-79
2021/06/27 06:26:03;;;;;;;31.05;25.80;;;21.90;99.90;;;;;;5094773;28;20283;-79
2021/06/27 06:28:30;;;;;;;30.75;27.20;;;21.90;99.90;;;;;;5095430;28;20197;-78
2021/06/27 06:30:57;;;;;;;30.60;26.33;;;22.00;99.90;;;;;;5095223;28;20499;-80
2021/06/27 06:33:26;;;;;;;31.52;26.60;;;22.00;99.90;;;;;;5109492;28;20503;-80
2021/06/27 06:35:53;;;;;;;27.95;24.95;;;21.90;99.90;;;;;;5115796;28;20191;-80
2021/06/27 06:38:20;;;;;;;31.55;26.40;;;21.80;99.90;;;;;;5115965;28;20195;-79
2021/06/27 06:40:47;;;;;;;31.60;24.83;;;21.70;99.90;;;;;;5101654;28;20305;-79
2021/06/27 06:43:13;;;;;;;33.53;26.38;;;21.50;99.90;;;;;;5095394;28;20196;-79
2021/06/27 06:45:40;;;;;;;29.98;26.00;;;21.50;99.90;;;;;;5095016;28;20208;-80
2021/06/27 06:48:08;;;;;;;31.92;26.48;;;21.50;99.90;;;;;;5103421;28;20200;-79
2021/06/27 06:50:36;;;;;;;29.77;26.52;;;21.20;99.90;;;;;;5115450;28;20195;-80
2021/06/27 06:53:03;;;;;;;30.33;25.83;;;21.20;99.90;;;;;;5115465;28;20223;-79
2021/06/27 06:55:30;;;;;;;29.17;25.13;;;21.10;99.90;;;;;;5101431;28;20207;-79
2021/06/27 06:57:57;;;;;;;35.90;27.55;;;21.20;99.90;;;;;;5095157;28;20193;-80
2021/06/27 07:00:24;;;;;;;32.95;26.02;;;21.20;99.90;;;;;;5095073;28;20203;-80
2021/06/27 07:02:51;;;;;;;31.10;25.30;;;21.30;99.90;;;;;;5109708;28;20200;-80
2021/06/27 07:05:18;;;;;;;26.60;23.20;;;21.30;99.90;;;;;;5115601;28;20203;-82
2021/06/27 07:07:46;;;;;;;27.88;23.58;;;21.30;99.90;;;;;;5115828;28;20495;-80
2021/06/27 07:10:14;;;;;;;31.80;25.02;;;21.50;99.90;;;;;;5114547;28;20215;-80
2021/06/27 07:12:41;;;;;;;27.55;23.27;;;21.40;99.90;;;;;;5113774;28;20223;-80
2021/06/27 07:15:09;;;;;;;26.58;23.30;;;21.50;99.90;;;;;;5114620;28;20199;-79
2021/06/27 07:17:36;;;;;;;28.90;23.90;;;21.80;99.90;;;;;;5113227;28;20247;-80
2021/06/27 07:20:04;;;;;;;28.38;23.48;;;21.90;99.90;;;;;;5118410;28;20195;-79
2021/06/27 07:22:31;;;;;;;27.42;23.10;;;22.00;99.90;;;;;;5104336;28;20200;-79
2021/06/27 07:24:59;;;;;;;34.13;24.00;;;22.10;99.90;;;;;;5098618;28;20204;-81
2021/06/27 07:27:26;;;;;;;28.70;23.92;;;22.00;99.90;;;;;;5098628;28;20197;-80
2021/06/27 07:29:53;;;;;;;25.52;22.40;;;21.90;99.90;;;;;;5098272;28;20200;-81
2021/06/27 07:32:20;;;;;;;25.20;22.30;;;21.90;99.90;;;;;;5097676;28;20407;-81
2021/06/27 07:34:47;;;;;;;27.05;23.67;;;21.70;99.90;;;;;;5098293;28;20513;-81
2021/06/27 07:37:13;;;;;;;25.77;23.08;;;21.80;99.90;;;;;;5093613;28;20197;-81
2021/06/27 07:39:40;;;;;;;29.30;23.85;;;22.00;99.90;;;;;;5113425;28;20200;-81
2021/06/27 07:42:09;;;;;;;26.33;22.88;;;22.10;99.90;;;;;;5119094;28;20196;-80
2021/06/27 07:44:36;;;;;;;25.88;20.92;;;22.30;99.90;;;;;;5113725;28;20209;-81
2021/06/27 07:47:03;;;;;;;24.27;21.65;;;22.60;99.90;;;;;;5098465;28;20196;-80
2021/06/27 07:49:30;;;;;;;25.38;21.45;;;22.80;99.90;;;;;;5098174;28;20205;-80
2021/06/27 07:51:56;;;;;;;25.63;21.65;;;22.90;99.90;;;;;;5097424;28;20602;-81
2021/06/27 07:54:23;;;;;;;26.33;22.10;;;22.90;99.90;;;;;;5114417;28;20219;-80
2021/06/27 07:56:50;;;;;;;20.42;18.20;;;22.80;99.90;;;;;;5118785;28;20200;-80
2021/06/27 07:59:18;;;;;;;24.95;19.77;;;22.80;99.90;;;;;;5105411;28;20497;-79
2021/06/27 08:01:45;;;;;;;24.17;21.30;;;22.90;99.90;;;;;;5097902;28;20200;-80
2021/06/27 08:04:12;;;;;;;23.35;20.67;;;23.10;99.90;;;;;;5097393;28;20196;-80
2021/06/27 08:06:38;;;;;;;24.08;20.13;;;23.10;99.90;;;;;;5097727;28;20201;-80
2021/06/27 08:09:06;;;;;;;21.60;19.33;;;23.00;99.90;;;;;;5114333;28;20223;-79
2021/06/27 08:11:32;;;;;;;22.80;20.42;;;23.00;99.90;;;;;;5117957;28;20192;-81
2021/06/27 08:13:59;;;;;;;22.50;19.92;;;23.10;99.90;;;;;;5118482;28;20212;-81
2021/06/27 08:16:27;;;;;;;22.60;19.35;;;23.00;99.90;;;;;;5097368;28;20208;-81
2021/06/27 08:18:54;;;;;;;23.00;19.23;;;23.10;99.90;;;;;;5097006;28;20244;-81
2021/06/27 08:21:21;;;;;;;24.92;20.52;;;23.30;99.90;;;;;;5098196;28;20196;-81
2021/06/27 08:23:48;;;;;;;26.27;20.40;;;23.10;99.90;;;;;;5112692;28;20211;-81
2021/06/27 08:26:15;;;;;;;22.42;18.70;;;23.10;99.90;;;;;;5116157;28;20200;-81
2021/06/27 08:28:41;;;;;;;23.45;20.17;;;23.20;99.90;;;;;;5118039;28;20194;-80
2021/06/27 08:31:08;;;;;;;25.27;20.25;;;23.30;99.90;;;;;;5117068;28;20199;-81
2021/06/27 08:33:37;;;;;;;24.60;20.90;;;23.20;99.90;;;;;;5099141;28;20621;-80
2021/06/27 08:36:04;;;;;;;20.05;17.08;;;23.20;99.90;;;;;;5096753;28;20207;-81
2021/06/27 08:38:31;;;;;;;24.30;19.13;;;23.20;99.90;;;;;;5097601;28;20207;-80
2021/06/27 08:40:58;;;;;;;22.40;18.60;;;23.40;99.90;;;;;;5096810;28;20200;-79
2021/06/27 08:43:30;;;;;;;25.90;19.13;;;23.60;99.90;;;;;;5097369;28;20189;-80
2021/06/27 08:45:58;;;;;;;23.77;19.35;;;23.70;99.90;;;;;;5096939;28;20246;-80
2021/06/27 08:48:27;;;;;;;21.88;18.33;;;23.80;99.90;;;;;;5095815;28;20196;-81
2021/06/27 08:50:56;;;;;;;22.55;18.75;;;23.90;99.90;;;;;;5097072;28;20203;-81
2021/06/27 08:53:23;;;;;;;23.63;19.58;;;23.90;99.90;;;;;;5110215;28;20273;-80
2021/06/27 08:56:04;;;;;;;23.73;19.52;;;23.70;99.90;;;;;;5117473;28;20619;-79
2021/06/27 08:58:33;;;;;;;21.63;18.15;;;23.70;99.90;;;;;;5103989;28;20208;-81
2021/06/27 09:01:00;;;;;;;23.92;19.08;;;23.80;99.90;;;;;;5099887;28;20227;-79
2021/06/27 09:03:27;;;;;;;22.25;19.85;;;24.00;99.90;;;;;;5117284;28;20622;-80
2021/06/27 09:05:55;;;;;;;21.98;18.33;;;24.10;99.90;;;;;;5099695;28;20591;-80
2021/06/27 09:08:22;;;;;;;21.80;19.50;;;24.20;99.90;;;;;;5096235;28;20204;-80
2021/06/27 09:10:49;;;;;;;22.92;20.23;;;24.40;99.90;;;;;;5100197;28;20216;-80
2021/06/27 09:13:15;;;;;;;21.35;19.05;;;24.10;99.90;;;;;;5116785;28;20628;-80
2021/06/27 09:15:45;;;;;;;23.20;20.55;;;24.20;99.90;;;;;;5104713;28;20208;-82
2021/06/27 09:18:24;;;;;;;21.98;19.67;;;24.50;99.90;;;;;;5096446;28;20678;-79
2021/06/27 09:20:53;;;;;;;21.52;18.40;;;24.60;99.90;;;;;;5102390;28;20196;-79
2021/06/27 09:23:36;;;;;;;20.52;17.92;;;24.80;99.90;;;;;;5116274;28;20199;-80
2021/06/27 09:26:03;;;;;;;21.05;18.05;;;25.00;99.90;;;;;;5116646;28;20194;-79
2021/06/27 09:28:47;;;;;;;20.50;17.95;;;25.10;99.90;;;;;;5114797;28;20200;-80
2021/06/27 09:31:35;;;;;;;21.25;18.95;;;25.10;99.90;;;;;;5116932;28;20487;-80
2021/06/27 09:34:03;;;;;;;21.50;17.25;;;25.40;99.90;;;;;;5116866;28;20226;-79
2021/06/27 09:36:31;;;;;;;21.63;18.33;;;25.70;99.90;;;;;;5116439;28;20207;-79
2021/06/27 09:39:07;;;;;;;21.70;17.65;;;25.90;99.90;;;;;;5108001;28;20216;-79
2021/06/27 09:41:35;;;;;;;20.92;18.77;;;25.90;99.90;;;;;;5096126;28;20192;-80
2021/06/27 09:44:04;;;;;;;21.92;19.83;;;25.90;99.90;;;;;;5110128;28;20202;-80
2021/06/27 09:46:36;;;;;;;20.60;18.48;;;25.80;99.90;;;;;;5116509;28;20238;-79
2021/06/27 09:49:06;;;;;;;18.55;16.52;;;25.90;99.90;;;;;;5107473;28;20205;-80
2021/06/27 09:51:35;;;;;;;19.25;17.23;;;26.20;99.90;;;;;;5095316;28;20196;-80
2021/06/27 09:54:11;;;;;;;20.33;16.95;;;26.40;99.90;;;;;;5096138;28;20235;-81
2021/06/27 09:56:38;;;;;;;22.15;18.95;;;26.50;99.90;;;;;;5095266;28;20207;-80
2021/06/27 09:59:07;;;;;;;18.77;16.88;;;26.50;99.90;;;;;;5095785;28;20188;-80
2021/06/27 10:01:35;;;;;;;19.30;17.30;;;26.70;99.90;;;;;;5095961;28;20197;-80
2021/06/27 10:04:03;;;;;;;17.77;15.88;;;26.80;99.90;;;;;;5110345;28;20215;-80
2021/06/27 10:06:31;;;;;;;18.83;16.92;;;26.80;99.90;;;;;;5116307;28;20202;-81
2021/06/27 10:09:11;;;;;;;20.40;17.60;;;26.70;99.90;;;;;;5116025;28;20223;-83
2021/06/27 10:11:38;;;;;;;18.15;16.33;;;26.50;99.90;;;;;;5114432;28;20187;-82
2021/06/27 10:14:11;;;;;;;19.88;16.75;;;26.40;99.90;;;;;;5115820;28;20646;-80
2021/06/27 10:16:38;;;;;;;16.92;15.23;;;26.10;99.90;;;;;;5116026;28;20200;-80
2021/06/27 10:19:06;;;;;;;19.08;17.08;;;26.40;99.90;;;;;;5113341;28;20235;-81
2021/06/27 10:21:33;;;;;;;20.02;17.58;;;26.30;99.90;;;;;;5115922;28;20202;-81
2021/06/27 10:24:00;;;;;;;15.73;14.00;;;26.30;99.90;;;;;;5115866;28;20298;-82
2021/06/27 10:26:29;;;;;;;18.45;15.57;;;26.40;99.90;;;;;;5114488;28;20192;-80
2021/06/27 10:28:57;;;;;;;18.38;15.93;;;26.60;99.90;;;;;;5097422;28;20847;-82
2021/06/27 10:31:26;;;;;;;17.40;15.60;;;26.70;99.90;;;;;;5095452;28;20203;-79
2021/06/27 10:33:54;;;;;;;17.90;15.20;;;26.80;99.90;;;;;;5094807;28;20220;-80
2021/06/27 10:36:30;;;;;;;15.68;14.02;;;26.70;99.90;;;;;;5095558;28;20192;-80
2021/06/27 10:38:58;;;;;;;16.60;14.82;;;26.80;99.90;;;;;;5114395;28;20195;-80
2021/06/27 10:41:52;;;;;;;17.10;14.90;;;26.90;99.90;;;;;;5115801;28;20196;-80
2021/06/27 10:44:20;;;;;;;16.00;14.13;;;26.70;99.90;;;;;;5115474;28;20199;-79
2021/06/27 10:46:48;;;;;;;15.55;13.75;;;26.90;99.90;;;;;;5095812;28;20200;-79
2021/06/27 10:49:52;;;;;;;14.70;13.20;;;27.00;99.90;;;;;;5100424;28;20207;-79
2021/06/27 10:52:20;;;;;;;14.93;13.40;;;27.20;99.90;;;;;;5118757;28;20222;-79
2021/06/27 10:55:15;;;;;;;15.23;13.63;;;27.40;99.90;;;;;;5114394;28;20224;-79
2021/06/27 10:58:00;;;;;;;13.82;12.43;;;27.40;99.90;;;;;;5104703;28;20279;-80
2021/06/27 11:00:28;;;;;;;14.75;13.25;;;27.50;99.90;;;;;;5094559;28;20207;-79
2021/06/27 11:02:55;;;;;;;13.15;11.95;;;27.60;99.90;;;;;;5095072;28;20601;-81
2021/06/27 11:05:46;;;;;;;14.15;12.65;;;27.60;99.90;;;;;;5094857;28;20204;-79
2021/06/27 11:08:15;;;;;;;13.50;12.10;;;27.70;99.90;;;;;;5094179;28;20588;-82
2021/06/27 11:10:43;;;;;;;12.13;10.98;;;28.00;99.90;;;;;;5095020;28;20220;-80
2021/06/27 11:13:19;;;;;;;13.10;11.80;;;28.10;99.90;;;;;;5094836;28;20196;-81
2021/06/27 11:16:04;;;;;;;11.43;10.43;;;28.10;99.90;;;;;;5094249;28;20200;-81
2021/06/27 11:18:33;;;;;;;11.70;10.48;;;28.00;99.90;;;;;;5127471;28;20246;-80
2021/06/27 11:21:13;;;;;;;11.77;10.55;;;28.10;99.90;;;;;;5135662;28;20202;-79
2021/06/27 11:23:59;;;;;;;11.07;10.07;;;27.90;99.90;;;;;;5135415;28;20187;-81
2021/06/27 11:26:45;;;;;;;13.68;11.57;;;28.10;99.90;;;;;;5127239;28;20689;-81
2021/06/27 11:29:41;;;;;;;10.88;9.77;;;28.10;99.90;;;;;;5114017;28;20226;-81
2021/06/27 11:32:44;;;;;;;17.05;12.02;;;28.00;99.90;;;;;;5115115;28;20196;-82
2021/06/27 11:35:33;;;;;;;12.15;10.48;;;28.00;99.90;;;;;;5114097;28;20314;-80
2021/06/27 11:38:00;;;;;;;10.40;9.38;;;27.80;99.90;;;;;;5129844;28;20207;-81
2021/06/27 11:40:48;;;;;;;9.73;8.73;;;28.10;99.90;;;;;;5135284;28;20194;-80
2021/06/27 11:43:15;;;;;;;9.32;8.02;;;28.10;99.90;;;;;;5134341;28;20200;-79
2021/06/27 11:45:51;;;;;;;9.25;8.43;;;27.80;99.90;;;;;;5134540;28;20211;-83
2021/06/27 11:48:19;;;;;;;9.15;8.35;;;27.80;99.90;;;;;;5133537;28;20202;-80
2021/06/27 11:50:51;;;;;;;8.77;7.88;;;28.00;99.90;;;;;;5114229;28;20199;-81
2021/06/27 11:53:22;;;;;;;8.25;7.50;;;28.30;99.90;;;;;;5126591;28;20202;-80
2021/06/27 11:56:04;;;;;;;7.50;6.80;;;28.50;99.90;;;;;;5135320;28;20260;-81
2021/06/27 11:58:31;;;;;;;7.72;6.93;;;28.50;99.90;;;;;;5132949;28;20280;-81
2021/06/27 12:01:09;;;;;;;9.70;8.05;;;28.70;99.90;;;;;;5134995;28;20637;-82
2021/06/27 12:03:46;;;;;;;7.63;6.93;;;28.40;99.90;;;;;;5133106;28;20199;-82
2021/06/27 12:06:13;;;;;;;8.73;7.88;;;28.20;99.90;;;;;;5138212;27;20218;-84
2021/06/27 12:08:44;;;;;;;9.15;8.23;;;28.20;99.90;;;;;;5141538;27;20203;-81
2021/06/27 12:11:11;;;;;;;7.30;6.60;;;28.10;99.90;;;;;;5143415;27;20218;-81
2021/06/27 12:13:39;;;;;;;8.75;7.97;;;28.20;99.90;;;;;;5118786;27;20515;-81
2021/06/27 12:16:08;;;;;;;7.72;7.03;;;28.10;99.90;;;;;;5118430;28;20200;-80
2021/06/27 12:18:36;;;;;;;9.68;7.80;;;28.30;99.90;;;;;;5116854;28;20236;-80
2021/06/27 12:21:07;;;;;;;8.13;7.43;;;28.50;99.90;;;;;;5117748;28;20545;-80
2021/06/27 12:23:36;;;;;;;8.63;7.13;;;28.60;99.90;;;;;;5124320;27;20311;-81
2021/06/27 12:26:05;;;;;;;8.52;7.72;;;28.70;99.90;;;;;;5137670;27;20287;-80
2021/06/27 12:28:35;;;;;;;8.90;8.10;;;28.80;99.90;;;;;;5138599;27;20275;-79
2021/06/27 12:31:08;;;;;;;7.65;6.85;;;28.60;99.90;;;;;;5138403;27;20191;-80
2021/06/27 12:33:37;;;;;;;7.70;7.00;;;28.70;99.90;;;;;;5135799;27;20518;-80
2021/06/27 12:36:08;;;;;;;9.60;7.05;;;28.50;99.90;;;;;;5138221;27;20257;-79
2021/06/27 12:38:37;;;;;;;8.77;7.82;;;28.50;99.90;;;;;;5137247;27;20191;-82